Time;durP1;ratioP1;P1;durP2;ratioP2;P2;SDS_P1;SDS_P2;PMS_P1;PMS_P2;Temp;Humidity;BMP_temperature;BMP_pressure;BME280_temperature;BME280_humidity;BME280_pressure;Samples;Min_cycle;Max_cycle;Signal;HPM_P1;HPM_P2
2023/08/07 00:01:33;;;;;;;3.50;1.00;;;13.70;28.70;;;;;;4972091;28;20473;-65
2023/08/07 00:04:00;;;;;;;7.40;1.70;;;13.60;28.70;;;;;;4971465;28;20466;-65
2023/08/07 00:06:27;;;;;;;7.77;1.10;;;13.70;28.80;;;;;;4970382;28;21013;-65
2023/08/07 00:08:55;;;;;;;4.37;1.40;;;13.60;28.70;;;;;;4972482;28;20492;-64
2023/08/07 00:11:22;;;;;;;5.10;0.90;;;13.60;29.20;;;;;;4966651;28;20472;-65
2023/08/07 00:13:48;;;;;;;4.33;1.23;;;13.60;29.40;;;;;;4964256;28;20470;-66
2023/08/07 00:16:15;;;;;;;3.60;1.20;;;13.50;29.20;;;;;;4964292;28;20473;-65
2023/08/07 00:18:42;;;;;;;3.90;1.10;;;13.60;29.10;;;;;;4966667;28;21182;-65
2023/08/07 00:21:08;;;;;;;5.20;1.33;;;13.50;29.50;;;;;;4966792;28;20468;-65
2023/08/07 00:23:35;;;;;;;4.70;1.53;;;13.60;29.40;;;;;;4965395;28;20465;-65
2023/08/07 00:26:03;;;;;;;4.40;1.30;;;13.60;29.40;;;;;;4969858;28;20465;-65
2023/08/07 00:28:30;;;;;;;4.90;1.73;;;13.60;29.30;;;;;;4966725;28;20989;-66
2023/08/07 00:30:57;;;;;;;6.83;1.40;;;13.50;29.20;;;;;;4969489;28;20867;-65
2023/08/07 00:33:24;;;;;;;3.70;1.40;;;13.50;29.00;;;;;;4977733;28;20993;-65
2023/08/07 00:35:50;;;;;;;3.73;1.30;;;13.50;28.90;;;;;;4973817;28;20464;-65
2023/08/07 00:38:17;;;;;;;5.33;1.10;;;13.50;29.00;;;;;;4974178;28;20493;-65
2023/08/07 00:40:44;;;;;;;4.50;1.40;;;13.50;28.80;;;;;;4975953;28;20464;-65
2023/08/07 00:43:12;;;;;;;3.70;1.13;;;13.50;28.50;;;;;;4975263;28;20469;-65
2023/08/07 00:45:43;;;;;;;4.10;1.60;;;13.50;28.70;;;;;;4973700;28;20465;-65
2023/08/07 00:48:11;;;;;;;5.07;1.47;;;13.50;28.40;;;;;;4972679;28;20473;-65
2023/08/07 00:50:37;;;;;;;4.47;1.20;;;13.40;28.50;;;;;;4974852;28;20476;-66
2023/08/07 00:53:05;;;;;;;4.67;1.43;;;13.40;28.40;;;;;;4972278;28;20457;-66
2023/08/07 00:55:32;;;;;;;3.50;1.17;;;13.40;28.30;;;;;;4972994;28;20465;-65
2023/08/07 00:57:59;;;;;;;4.50;1.17;;;13.40;28.20;;;;;;4974040;28;20481;-65
2023/08/07 01:00:29;;;;;;;5.23;1.60;;;13.40;28.20;;;;;;4969132;28;20476;-65
2023/08/07 01:02:57;;;;;;;3.70;1.30;;;13.30;28.10;;;;;;4973063;28;20458;-65
2023/08/07 01:05:25;;;;;;;4.87;1.00;;;13.30;28.10;;;;;;4983283;28;20469;-65
2023/08/07 01:07:54;;;;;;;7.30;1.40;;;13.40;27.70;;;;;;4984742;28;20482;-65
2023/08/07 01:10:26;;;;;;;4.13;1.13;;;13.30;27.60;;;;;;4970846;28;20491;-66
2023/08/07 01:13:00;;;;;;;4.93;1.30;;;13.30;27.70;;;;;;4971024;28;20464;-65
2023/08/07 01:15:34;;;;;;;3.30;1.00;;;13.30;27.80;;;;;;4971656;28;20469;-65
2023/08/07 01:18:01;;;;;;;4.80;1.30;;;13.20;27.40;;;;;;4966462;28;20879;-65
2023/08/07 01:21:05;;;;;;;5.33;1.30;;;13.20;27.10;;;;;;4972873;28;20482;-65
2023/08/07 01:23:33;;;;;;;4.30;1.07;;;13.20;27.70;;;;;;4970448;28;20453;-64
2023/08/07 01:26:00;;;;;;;4.80;1.30;;;13.20;27.40;;;;;;4971090;28;20462;-65
2023/08/07 01:28:33;;;;;;;5.40;1.60;;;13.10;27.50;;;;;;4968340;28;20568;-64
2023/08/07 01:31:04;;;;;;;4.80;1.33;;;13.10;27.50;;;;;;4967634;28;20465;-65
2023/08/07 01:33:35;;;;;;;4.80;1.77;;;13.10;27.70;;;;;;4966156;28;20958;-64
2023/08/07 01:36:06;;;;;;;4.27;1.50;;;13.10;27.40;;;;;;4972240;28;20476;-65
2023/08/07 01:38:35;;;;;;;7.70;1.33;;;13.10;27.40;;;;;;4970306;28;20508;-65
2023/08/07 01:41:03;;;;;;;7.73;1.70;;;13.10;27.50;;;;;;4973773;28;20458;-65
2023/08/07 01:43:30;;;;;;;3.70;1.20;;;13.10;27.60;;;;;;4970097;28;20479;-64
2023/08/07 01:45:58;;;;;;;4.93;1.47;;;13.10;27.40;;;;;;4969904;28;20470;-65
2023/08/07 01:48:25;;;;;;;4.27;1.47;;;13.10;27.50;;;;;;4967852;28;20497;-65
2023/08/07 01:50:51;;;;;;;4.50;1.47;;;13.00;27.70;;;;;;4970532;28;20472;-65
2023/08/07 01:53:18;;;;;;;3.30;1.10;;;13.00;27.70;;;;;;4969109;28;20465;-65
2023/08/07 01:55:46;;;;;;;5.30;1.93;;;13.00;27.70;;;;;;4971400;28;21238;-65
2023/08/07 01:58:13;;;;;;;4.30;1.33;;;13.00;27.90;;;;;;4971008;28;20486;-65
2023/08/07 02:00:39;;;;;;;5.67;1.17;;;13.00;28.10;;;;;;4966829;28;20474;-65
2023/08/07 02:03:06;;;;;;;4.40;1.43;;;13.00;28.10;;;;;;4971605;28;20470;-65
2023/08/07 02:05:33;;;;;;;8.10;1.87;;;13.00;28.10;;;;;;4972481;28;20930;-65
2023/08/07 02:07:59;;;;;;;4.27;1.47;;;13.00;28.20;;;;;;4970578;28;20492;-65
2023/08/07 02:10:26;;;;;;;7.00;1.63;;;13.00;28.20;;;;;;4968030;28;20470;-65
2023/08/07 02:12:54;;;;;;;4.60;1.60;;;12.90;28.30;;;;;;4971725;28;20549;-65
2023/08/07 02:15:21;;;;;;;3.97;1.17;;;12.90;28.30;;;;;;4969503;28;20882;-64
2023/08/07 02:17:48;;;;;;;4.90;1.50;;;12.90;28.40;;;;;;4970562;28;20489;-64
2023/08/07 02:20:14;;;;;;;4.57;1.40;;;12.90;28.40;;;;;;4970495;28;20481;-65
2023/08/07 02:22:41;;;;;;;4.13;1.30;;;12.90;28.40;;;;;;4969525;28;21262;-65
2023/08/07 02:25:08;;;;;;;4.30;1.60;;;12.90;28.50;;;;;;4971901;28;20469;-65
2023/08/07 02:27:35;;;;;;;5.20;1.50;;;12.80;28.40;;;;;;4968478;28;20478;-66
2023/08/07 02:30:04;;;;;;;5.40;1.47;;;12.80;28.40;;;;;;4969542;28;20977;-65
2023/08/07 02:32:31;;;;;;;4.87;1.63;;;12.80;28.50;;;;;;4970056;28;20477;-65
2023/08/07 02:34:58;;;;;;;4.33;1.63;;;12.80;28.40;;;;;;4967863;28;20473;-65
2023/08/07 02:37:25;;;;;;;5.77;1.33;;;12.80;28.60;;;;;;4971381;28;20486;-65
2023/08/07 02:39:53;;;;;;;4.80;1.63;;;12.80;28.50;;;;;;4970385;28;20484;-65
2023/08/07 02:42:20;;;;;;;6.57;1.40;;;12.80;28.60;;;;;;4970683;28;20462;-65
2023/08/07 02:44:47;;;;;;;4.50;1.57;;;12.80;28.60;;;;;;4968563;28;20989;-65
2023/08/07 02:47:15;;;;;;;4.80;1.70;;;12.70;28.90;;;;;;4964903;28;20481;-65
2023/08/07 02:49:41;;;;;;;5.40;1.30;;;12.70;29.00;;;;;;4966683;28;20965;-65
2023/08/07 02:52:08;;;;;;;4.10;1.40;;;12.80;28.90;;;;;;4962029;28;20466;-65
2023/08/07 02:54:35;;;;;;;6.90;3.17;;;12.80;28.80;;;;;;4964343;28;20466;-65
2023/08/07 02:57:02;;;;;;;4.67;2.03;;;12.80;28.70;;;;;;4972361;28;20481;-65
2023/08/07 02:59:28;;;;;;;5.30;1.87;;;12.80;28.40;;;;;;4977791;28;20495;-65
2023/08/07 03:01:55;;;;;;;3.87;1.30;;;12.80;28.60;;;;;;4960513;28;20489;-65
2023/08/07 03:04:23;;;;;;;5.43;1.40;;;12.80;28.20;;;;;;4961373;28;20470;-65
2023/08/07 03:06:50;;;;;;;4.57;1.63;;;12.90;28.10;;;;;;4959979;28;20469;-65
2023/08/07 03:09:17;;;;;;;4.00;1.10;;;12.90;27.80;;;;;;4962067;28;20473;-65
2023/08/07 03:11:43;;;;;;;4.57;1.63;;;12.90;27.70;;;;;;4964471;28;20484;-65
2023/08/07 03:14:10;;;;;;;4.33;1.50;;;12.90;27.70;;;;;;4963115;28;20496;-65
2023/08/07 03:16:37;;;;;;;4.47;1.37;;;13.00;27.50;;;;;;4969720;28;20470;-65
2023/08/07 03:19:03;;;;;;;7.83;1.57;;;12.90;27.40;;;;;;4971271;28;21409;-65
2023/08/07 03:21:31;;;;;;;4.27;1.47;;;12.90;27.50;;;;;;4979500;28;20469;-65
2023/08/07 03:23:58;;;;;;;5.73;1.73;;;12.90;27.20;;;;;;4967600;28;20486;-65
2023/08/07 03:26:25;;;;;;;6.00;1.50;;;12.90;27.20;;;;;;4966201;28;20470;-65
2023/08/07 03:28:51;;;;;;;8.33;1.37;;;12.90;27.10;;;;;;4966498;28;21042;-65
2023/08/07 03:31:18;;;;;;;4.87;1.83;;;12.90;26.90;;;;;;4963589;28;20501;-65
2023/08/07 03:33:45;;;;;;;4.10;1.47;;;12.90;27.00;;;;;;4968191;28;21001;-65
2023/08/07 03:36:12;;;;;;;11.17;1.93;;;12.90;26.90;;;;;;4960906;28;20462;-65
2023/08/07 03:38:40;;;;;;;3.87;1.33;;;12.80;26.70;;;;;;4967027;28;20492;-65
2023/08/07 03:41:06;;;;;;;5.20;1.90;;;12.80;26.60;;;;;;4967738;28;20479;-66
2023/08/07 03:43:33;;;;;;;4.33;1.63;;;12.80;26.80;;;;;;4964873;28;20470;-66
2023/08/07 03:46:00;;;;;;;4.33;1.20;;;12.80;26.70;;;;;;4965913;28;20469;-65
2023/08/07 03:48:27;;;;;;;4.23;1.37;;;12.80;26.70;;;;;;4976567;28;20481;-65
2023/08/07 03:50:53;;;;;;;4.10;1.30;;;12.80;26.20;;;;;;4965958;28;20883;-65
2023/08/07 03:53:20;;;;;;;5.67;1.50;;;12.80;26.10;;;;;;4962886;28;20465;-65
2023/08/07 03:55:52;;;;;;;5.23;1.97;;;12.80;26.20;;;;;;4964189;28;20461;-65
2023/08/07 03:58:18;;;;;;;3.97;1.23;;;12.80;26.20;;;;;;4973463;28;21021;-65
2023/08/07 04:00:45;;;;;;;5.37;1.50;;;12.80;26.30;;;;;;4970128;28;20478;-65
2023/08/07 04:03:12;;;;;;;5.40;1.87;;;12.80;26.40;;;;;;4976222;28;20465;-65
2023/08/07 04:05:39;;;;;;;5.40;1.87;;;12.80;26.20;;;;;;4970305;28;20462;-65
2023/08/07 04:08:05;;;;;;;4.90;1.87;;;12.80;26.30;;;;;;4970826;28;20483;-65
2023/08/07 04:10:32;;;;;;;5.03;1.40;;;12.80;26.40;;;;;;4968322;28;20454;-65
2023/08/07 04:13:00;;;;;;;8.17;2.17;;;12.80;26.20;;;;;;4983826;28;20462;-66
2023/08/07 04:15:27;;;;;;;4.73;1.37;;;12.80;26.40;;;;;;4983815;28;20529;-66
2023/08/07 04:17:53;;;;;;;4.33;1.60;;;12.80;27.10;;;;;;4978526;28;20489;-66
2023/08/07 04:20:20;;;;;;;4.60;1.70;;;12.80;27.30;;;;;;4972304;28;21002;-66
2023/08/07 04:22:47;;;;;;;7.57;1.70;;;12.80;27.10;;;;;;4968102;28;20537;-66
2023/08/07 04:25:14;;;;;;;5.20;1.70;;;12.80;27.20;;;;;;4976883;28;20492;-66
2023/08/07 04:27:41;;;;;;;5.90;1.63;;;12.90;27.30;;;;;;4974506;28;20485;-66
2023/08/07 04:30:10;;;;;;;8.10;2.23;;;12.90;27.10;;;;;;4972986;28;20952;-66
2023/08/07 04:32:37;;;;;;;5.60;1.50;;;12.90;26.90;;;;;;4973583;28;20471;-65
2023/08/07 04:35:04;;;;;;;5.33;2.10;;;13.00;26.40;;;;;;4963628;28;20975;-64
2023/08/07 04:37:31;;;;;;;4.60;1.43;;;13.00;25.30;;;;;;4971720;28;20485;-64
2023/08/07 04:39:58;;;;;;;6.33;1.67;;;13.10;24.90;;;;;;4973972;28;21006;-64
2023/08/07 04:42:24;;;;;;;5.27;1.73;;;13.10;24.70;;;;;;4967589;28;20476;-64
2023/08/07 04:44:51;;;;;;;4.80;1.37;;;13.10;24.20;;;;;;4967881;28;20474;-64
2023/08/07 04:47:19;;;;;;;5.13;1.60;;;13.10;23.90;;;;;;4974718;28;20838;-64
2023/08/07 04:49:46;;;;;;;4.73;1.60;;;13.10;23.70;;;;;;4969397;28;20454;-64
2023/08/07 04:52:12;;;;;;;5.10;1.90;;;13.10;23.80;;;;;;4965768;28;20468;-64
2023/08/07 04:54:39;;;;;;;4.90;1.83;;;13.20;23.40;;;;;;4965385;28;20465;-64
2023/08/07 04:57:06;;;;;;;5.37;1.33;;;13.10;23.20;;;;;;4964201;28;20490;-64
2023/08/07 04:59:33;;;;;;;5.10;1.93;;;13.20;23.30;;;;;;4968746;28;20490;-64
2023/08/07 05:01:59;;;;;;;5.43;1.50;;;13.20;23.10;;;;;;4973780;28;20481;-64
2023/08/07 05:04:27;;;;;;;4.63;1.53;;;13.20;22.80;;;;;;4969630;28;20841;-64
2023/08/07 05:06:54;;;;;;;4.10;1.50;;;13.30;22.60;;;;;;4976706;28;20464;-64
2023/08/07 05:09:21;;;;;;;4.77;1.60;;;13.40;22.40;;;;;;4967311;28;20465;-64
2023/08/07 05:11:48;;;;;;;7.43;1.67;;;13.60;22.00;;;;;;4976035;28;20456;-64
2023/08/07 05:14:15;;;;;;;4.80;1.47;;;14.00;20.80;;;;;;4967106;28;20969;-64
2023/08/07 05:16:41;;;;;;;4.70;1.70;;;14.40;19.50;;;;;;4985067;28;20464;-64
2023/08/07 05:19:08;;;;;;;4.87;1.80;;;14.40;18.90;;;;;;4974124;28;20893;-64
2023/08/07 05:21:36;;;;;;;4.47;1.50;;;14.40;18.80;;;;;;4977816;28;20477;-63
2023/08/07 05:24:03;;;;;;;4.60;1.50;;;14.60;18.90;;;;;;4978830;28;20472;-64
2023/08/07 05:26:30;;;;;;;4.40;1.60;;;15.50;17.30;;;;;;4974303;28;20468;-64
2023/08/07 05:28:57;;;;;;;8.60;1.87;;;16.20;15.10;;;;;;4965258;28;20848;-64
2023/08/07 05:31:24;;;;;;;4.00;1.30;;;16.60;14.10;;;;;;4974394;28;20474;-64
2023/08/07 05:33:51;;;;;;;4.37;1.40;;;16.80;13.10;;;;;;4970634;28;20457;-65
2023/08/07 05:36:18;;;;;;;4.13;1.30;;;16.90;12.80;;;;;;4976793;28;20460;-64
2023/08/07 05:38:46;;;;;;;4.17;1.37;;;17.00;12.20;;;;;;4986904;23;22034;-69
2023/08/07 05:41:13;;;;;;;4.17;1.53;;;17.10;11.80;;;;;;4966046;28;20481;-67
2023/08/07 05:43:39;;;;;;;5.33;1.57;;;17.40;11.40;;;;;;4971949;28;20468;-68
2023/08/07 05:46:06;;;;;;;4.00;1.40;;;17.80;10.60;;;;;;4969234;28;20465;-67
2023/08/07 05:48:33;;;;;;;6.00;1.37;;;18.50;9.70;;;;;;4970606;28;20858;-67
2023/08/07 05:50:59;;;;;;;7.30;1.40;;;19.50;7.50;;;;;;4963011;28;20458;-67
2023/08/07 05:53:26;;;;;;;3.80;1.40;;;20.80;5.40;;;;;;4966413;28;20455;-67
2023/08/07 05:55:54;;;;;;;5.97;1.70;;;22.30;2.40;;;;;;4970119;28;20470;-68
2023/08/07 05:58:21;;;;;;;4.63;1.40;;;23.60;1.00;;;;;;4967466;28;20477;-68
2023/08/07 06:00:47;;;;;;;3.80;1.17;;;24.80;1.00;;;;;;4964316;28;20474;-67
2023/08/07 06:03:14;;;;;;;5.10;1.40;;;25.80;1.00;;;;;;4947730;28;20464;-67
2023/08/07 06:05:41;;;;;;;3.90;1.07;;;26.80;1.00;;;;;;4950384;28;20458;-67
2023/08/07 06:08:08;;;;;;;4.70;1.40;;;27.00;1.00;;;;;;4949301;28;21762;-67
2023/08/07 06:10:35;;;;;;;4.53;1.43;;;26.50;1.00;;;;;;4950345;28;20554;-67
2023/08/07 06:13:03;;;;;;;4.23;1.33;;;25.50;1.00;;;;;;4951427;28;20829;-67
2023/08/07 06:15:30;;;;;;;4.80;1.77;;;24.40;1.00;;;;;;4951888;28;20483;-68
2023/08/07 06:17:57;;;;;;;4.10;1.27;;;23.50;1.00;;;;;;4948738;28;20471;-67
2023/08/07 06:20:24;;;;;;;4.40;1.30;;;22.60;1.00;;;;;;4947687;28;20479;-67
2023/08/07 06:22:50;;;;;;;5.50;2.00;;;21.90;1.00;;;;;;4951754;28;20477;-67
2023/08/07 06:25:19;;;;;;;5.93;1.23;;;21.50;1.00;;;;;;4943762;28;20937;-67
2023/08/07 06:27:46;;;;;;;7.50;1.70;;;21.20;1.40;;;;;;4946013;28;20487;-67
2023/08/07 06:30:15;;;;;;;4.17;1.30;;;22.10;1.10;;;;;;4945050;28;20455;-67
2023/08/07 06:32:42;;;;;;;7.30;1.67;;;23.40;1.00;;;;;;4949690;28;20458;-67
2023/08/07 06:35:09;;;;;;;3.50;1.30;;;23.70;1.00;;;;;;4945591;28;20555;-67
2023/08/07 06:37:36;;;;;;;4.67;1.50;;;23.10;1.00;;;;;;4947498;28;20484;-67
2023/08/07 06:40:05;;;;;;;6.90;1.43;;;22.50;1.00;;;;;;4951153;28;20463;-67
2023/08/07 06:42:31;;;;;;;4.60;1.57;;;21.80;1.00;;;;;;4951266;28;20510;-67
2023/08/07 06:44:58;;;;;;;5.53;1.80;;;21.10;1.30;;;;;;4949492;28;20474;-67
2023/08/07 06:47:26;;;;;;;3.83;1.27;;;20.40;2.30;;;;;;4951859;28;20482;-67
2023/08/07 06:49:53;;;;;;;4.30;1.30;;;19.80;3.80;;;;;;4951154;28;21054;-67
2023/08/07 06:52:19;;;;;;;3.90;1.40;;;19.30;5.20;;;;;;4951312;28;20463;-67
2023/08/07 06:54:46;;;;;;;4.40;1.50;;;18.90;5.80;;;;;;4950824;28;20462;-67
2023/08/07 06:57:13;;;;;;;4.40;1.67;;;18.40;6.90;;;;;;4949995;28;20525;-67
2023/08/07 06:59:39;;;;;;;6.00;1.50;;;18.10;8.20;;;;;;4950757;28;20470;-67
2023/08/07 07:02:07;;;;;;;6.37;1.50;;;17.80;9.10;;;;;;4949842;28;20482;-67
2023/08/07 07:04:36;;;;;;;6.00;1.70;;;17.50;9.90;;;;;;4950997;28;20467;-68
2023/08/07 07:07:03;;;;;;;4.40;1.70;;;17.30;10.60;;;;;;4949286;28;20478;-67
2023/08/07 07:09:29;;;;;;;5.80;2.27;;;17.20;11.10;;;;;;4950441;28;20458;-67
2023/08/07 07:11:56;;;;;;;5.97;1.93;;;17.40;11.10;;;;;;4946207;28;20467;-67
2023/08/07 07:14:24;;;;;;;6.03;1.50;;;17.60;10.60;;;;;;4944628;28;20811;-67
2023/08/07 07:16:50;;;;;;;5.63;1.70;;;17.70;10.20;;;;;;4948426;28;20470;-67
2023/08/07 07:19:18;;;;;;;4.57;1.40;;;17.80;9.90;;;;;;4947275;28;20471;-67
2023/08/07 07:21:46;;;;;;;4.47;1.63;;;17.80;10.30;;;;;;4946531;28;21312;-67
2023/08/07 07:24:13;;;;;;;4.20;1.50;;;17.90;10.20;;;;;;4948272;28;20523;-67
2023/08/07 07:26:39;;;;;;;4.47;1.40;;;18.30;10.10;;;;;;4948421;28;20463;-67
2023/08/07 07:29:06;;;;;;;6.00;2.13;;;19.40;8.40;;;;;;4949855;28;20454;-67
2023/08/07 07:31:33;;;;;;;4.63;1.43;;;19.70;6.80;;;;;;4949906;28;20479;-67
2023/08/07 07:34:00;;;;;;;4.90;1.53;;;20.20;6.00;;;;;;4940204;28;20509;-67
2023/08/07 07:36:27;;;;;;;5.67;1.87;;;20.20;4.70;;;;;;4943374;28;20467;-67
2023/08/07 07:38:55;;;;;;;6.40;1.73;;;20.10;5.40;;;;;;4949684;28;20907;-67
2023/08/07 07:41:23;;;;;;;4.90;1.57;;;20.70;5.20;;;;;;4945374;28;20999;-67
2023/08/07 07:43:50;;;;;;;7.00;1.37;;;20.90;3.90;;;;;;4950399;28;20466;-67
2023/08/07 07:46:17;;;;;;;4.77;1.90;;;20.70;3.80;;;;;;4950479;28;20458;-67
2023/08/07 07:48:44;;;;;;;3.70;1.53;;;20.70;4.50;;;;;;4950159;28;20485;-67
2023/08/07 07:51:11;;;;;;;4.40;1.40;;;21.40;3.70;;;;;;4944636;28;20935;-67
2023/08/07 07:53:37;;;;;;;4.30;1.50;;;21.80;2.70;;;;;;4946699;28;20459;-67
2023/08/07 07:56:05;;;;;;;4.40;1.57;;;22.40;1.00;;;;;;4949774;28;20470;-67
2023/08/07 07:58:32;;;;;;;5.43;1.77;;;22.10;1.10;;;;;;4948100;28;21403;-67
2023/08/07 08:00:59;;;;;;;6.40;1.40;;;21.70;2.00;;;;;;4949827;28;20528;-67
2023/08/07 08:03:25;;;;;;;3.73;1.27;;;21.30;2.80;;;;;;4946739;28;20462;-67
2023/08/07 08:05:53;;;;;;;4.03;1.60;;;20.90;3.20;;;;;;4946334;28;20469;-67
2023/08/07 08:08:20;;;;;;;3.87;1.37;;;20.60;3.70;;;;;;4950095;28;20490;-67
2023/08/07 08:10:47;;;;;;;4.27;1.67;;;20.60;4.30;;;;;;4948536;28;20463;-67
2023/08/07 08:13:16;;;;;;;4.77;1.77;;;20.70;4.30;;;;;;4945975;28;20872;-67
2023/08/07 08:15:42;;;;;;;4.63;1.70;;;21.00;4.10;;;;;;4946811;28;20467;-67
2023/08/07 08:18:09;;;;;;;4.77;1.50;;;21.40;2.70;;;;;;4949894;28;20482;-67
2023/08/07 08:20:36;;;;;;;4.27;1.33;;;22.00;1.80;;;;;;4950120;28;20508;-68
2023/08/07 08:23:02;;;;;;;4.40;1.33;;;23.00;1.50;;;;;;4949486;28;20466;-67
2023/08/07 08:25:29;;;;;;;5.70;1.40;;;25.10;1.00;;;;;;4943734;28;20467;-67
2023/08/07 08:27:56;;;;;;;4.73;1.30;;;26.40;1.00;;;;;;4945988;28;20466;-67
2023/08/07 08:30:24;;;;;;;3.70;1.50;;;27.00;1.00;;;;;;4943538;28;20806;-67
2023/08/07 08:32:51;;;;;;;3.70;1.53;;;26.90;1.00;;;;;;4947996;28;20473;-67
2023/08/07 08:35:18;;;;;;;3.93;1.30;;;26.80;1.00;;;;;;4949122;28;20455;-68
2023/08/07 08:37:44;;;;;;;4.67;1.30;;;26.30;1.00;;;;;;4949720;28;20486;-67
2023/08/07 08:40:16;;;;;;;5.63;1.63;;;26.80;1.00;;;;;;4946628;28;20462;-67
2023/08/07 08:42:44;;;;;;;4.33;1.73;;;27.10;1.00;;;;;;4949148;28;20475;-68
2023/08/07 08:45:13;;;;;;;5.40;1.33;;;27.20;1.00;;;;;;4950162;28;20469;-67
2023/08/07 08:47:43;;;;;;;4.17;1.37;;;27.80;1.00;;;;;;4947573;28;20495;-67
2023/08/07 08:50:13;;;;;;;3.83;1.10;;;31.40;1.00;;;;;;4947609;28;20969;-67
2023/08/07 08:52:43;;;;;;;3.50;1.27;;;33.50;1.00;;;;;;4948824;28;20460;-67
2023/08/07 08:55:10;;;;;;;4.00;1.30;;;33.20;1.00;;;;;;4951939;28;21152;-67
2023/08/07 08:57:39;;;;;;;3.70;1.30;;;32.80;1.00;;;;;;4950038;28;20529;-68
2023/08/07 09:00:17;;;;;;;4.97;1.70;;;32.20;1.00;;;;;;4952932;28;20462;-68
2023/08/07 09:02:46;;;;;;;3.10;1.07;;;31.60;1.00;;;;;;4948516;28;20482;-68
2023/08/07 09:05:14;;;;;;;3.70;1.23;;;34.10;1.00;;;;;;4953619;28;20481;-68
2023/08/07 09:07:41;;;;;;;4.07;1.30;;;33.80;1.00;;;;;;4952668;28;20486;-67
2023/08/07 09:10:10;;;;;;;5.67;1.20;;;31.60;1.00;;;;;;4951145;28;20831;-67
2023/08/07 09:12:40;;;;;;;4.57;1.40;;;29.40;1.00;;;;;;4948678;28;20457;-67
2023/08/07 09:15:10;;;;;;;5.60;1.20;;;27.50;1.00;;;;;;4952779;28;20458;-67
2023/08/07 09:17:43;;;;;;;3.63;1.60;;;27.00;1.00;;;;;;4948977;28;20485;-67
2023/08/07 09:20:14;;;;;;;4.93;1.43;;;27.20;1.00;;;;;;4953284;28;20458;-67
2023/08/07 09:22:41;;;;;;;3.90;1.43;;;26.40;1.00;;;;;;4950624;28;20570;-67
2023/08/07 09:25:10;;;;;;;4.63;1.50;;;26.00;1.00;;;;;;4951229;28;20479;-67
2023/08/07 09:27:38;;;;;;;3.90;1.50;;;26.60;1.00;;;;;;4949510;28;20482;-67
2023/08/07 09:30:08;;;;;;;3.30;1.20;;;30.00;1.00;;;;;;4952839;28;20951;-68
2023/08/07 09:32:35;;;;;;;5.20;1.40;;;33.40;1.00;;;;;;4948076;28;20464;-67
2023/08/07 09:35:04;;;;;;;3.43;1.30;;;34.30;1.00;;;;;;4953542;28;20474;-67
2023/08/07 09:37:32;;;;;;;5.37;1.60;;;32.90;1.00;;;;;;4950610;28;20495;-67
2023/08/07 09:40:01;;;;;;;4.20;1.37;;;31.80;1.00;;;;;;4948307;28;20955;-67
2023/08/07 09:42:32;;;;;;;4.37;1.50;;;30.80;1.00;;;;;;4949828;28;20482;-67
2023/08/07 09:45:00;;;;;;;6.37;1.40;;;29.40;1.00;;;;;;4951636;28;20490;-67
2023/08/07 09:47:26;;;;;;;5.27;1.37;;;29.70;1.00;;;;;;4948061;28;20506;-67
2023/08/07 09:49:55;;;;;;;5.33;1.30;;;29.60;1.00;;;;;;4952285;28;20462;-67
2023/08/07 09:52:22;;;;;;;4.77;1.30;;;29.00;1.00;;;;;;4952408;28;20477;-67
2023/08/07 09:54:50;;;;;;;3.67;1.10;;;27.80;1.00;;;;;;4952619;28;21216;-68
2023/08/07 09:57:17;;;;;;;6.47;1.30;;;26.60;1.00;;;;;;4951383;28;20482;-67
2023/08/07 09:59:50;;;;;;;4.73;1.40;;;25.80;1.00;;;;;;4950734;28;20823;-67
2023/08/07 10:02:17;;;;;;;7.03;1.60;;;25.30;1.00;;;;;;4949078;28;20486;-67
2023/08/07 10:04:44;;;;;;;5.50;1.50;;;25.00;1.00;;;;;;4952467;28;20482;-68
2023/08/07 10:07:12;;;;;;;4.20;1.20;;;25.90;1.00;;;;;;4948067;28;21046;-67
2023/08/07 10:09:40;;;;;;;3.90;1.50;;;27.50;1.00;;;;;;4948170;28;20478;-67
2023/08/07 10:12:08;;;;;;;4.63;1.60;;;28.30;1.00;;;;;;4952316;28;20467;-67
2023/08/07 10:14:35;;;;;;;3.30;1.10;;;28.70;1.00;;;;;;4952004;28;20466;-67
2023/08/07 10:17:03;;;;;;;4.50;1.40;;;28.50;1.00;;;;;;4947626;28;21063;-68
2023/08/07 10:19:29;;;;;;;4.10;1.10;;;26.90;1.00;;;;;;4950048;28;20469;-67
2023/08/07 10:21:57;;;;;;;4.43;1.20;;;25.40;1.00;;;;;;4952341;28;20483;-68
2023/08/07 10:24:25;;;;;;;3.53;1.20;;;24.50;1.00;;;;;;4952276;28;20865;-67
2023/08/07 10:26:53;;;;;;;5.00;1.00;;;24.30;1.00;;;;;;4951501;28;20858;-67
2023/08/07 10:29:25;;;;;;;3.67;1.23;;;24.20;1.00;;;;;;4952586;28;20438;-67
2023/08/07 10:31:53;;;;;;;4.00;1.50;;;23.80;1.00;;;;;;4950666;28;20475;-67
2023/08/07 10:34:20;;;;;;;5.77;1.10;;;23.30;1.00;;;;;;4951147;28;20469;-67
2023/08/07 10:36:46;;;;;;;4.00;1.20;;;23.10;1.00;;;;;;4951233;28;21000;-67
2023/08/07 10:39:15;;;;;;;4.70;1.47;;;23.10;1.00;;;;;;4952014;28;20485;-67
2023/08/07 10:41:45;;;;;;;4.60;1.20;;;23.10;1.00;;;;;;4950633;28;20566;-67
2023/08/07 10:44:19;;;;;;;5.00;1.33;;;23.00;1.00;;;;;;4951704;28;20835;-67
2023/08/07 10:46:52;;;;;;;3.67;1.17;;;22.70;1.00;;;;;;4949711;28;20454;-67
2023/08/07 10:49:33;;;;;;;4.30;1.43;;;22.40;1.00;;;;;;4948880;28;20461;-67
2023/08/07 10:52:00;;;;;;;8.33;1.30;;;22.10;1.00;;;;;;4945945;28;20537;-67
2023/08/07 10:54:27;;;;;;;5.13;1.37;;;22.00;1.00;;;;;;4951588;28;20462;-68
2023/08/07 10:56:55;;;;;;;4.03;1.57;;;21.60;1.00;;;;;;4946168;28;21027;-67
2023/08/07 10:59:22;;;;;;;4.23;1.10;;;21.20;1.00;;;;;;4948890;28;20482;-67
2023/08/07 11:01:55;;;;;;;4.43;1.50;;;20.80;1.00;;;;;;4951424;28;20478;-67
2023/08/07 11:04:25;;;;;;;5.47;1.40;;;20.60;1.00;;;;;;4951722;28;20462;-67
2023/08/07 11:06:52;;;;;;;4.80;1.50;;;20.60;1.70;;;;;;4950981;28;20477;-66
2023/08/07 11:09:19;;;;;;;3.50;1.23;;;20.90;1.00;;;;;;4950447;28;20458;-67
2023/08/07 11:11:47;;;;;;;5.30;1.40;;;21.10;1.00;;;;;;4948166;28;20459;-67
2023/08/07 11:14:15;;;;;;;4.50;1.70;;;21.20;1.30;;;;;;4950601;28;20907;-67
2023/08/07 11:16:43;;;;;;;4.60;1.40;;;21.10;1.00;;;;;;4946286;28;20462;-67
2023/08/07 11:19:12;;;;;;;3.90;1.33;;;21.10;1.00;;;;;;4950681;28;20465;-67
2023/08/07 11:21:39;;;;;;;4.73;1.07;;;21.10;1.00;;;;;;4950820;28;20586;-67
2023/08/07 11:24:06;;;;;;;4.23;1.50;;;21.20;1.00;;;;;;4950883;28;20473;-67
2023/08/07 11:26:32;;;;;;;4.37;1.10;;;21.40;1.00;;;;;;4947131;28;21028;-67
2023/08/07 11:28:59;;;;;;;4.63;1.20;;;21.50;1.00;;;;;;4949415;28;20497;-68
2023/08/07 11:31:27;;;;;;;5.30;1.30;;;21.50;1.00;;;;;;4948582;28;20993;-67
2023/08/07 11:33:57;;;;;;;3.60;1.00;;;21.50;1.00;;;;;;4949999;28;20537;-67
2023/08/07 11:36:25;;;;;;;3.47;1.23;;;21.60;1.00;;;;;;4947860;28;20462;-67
2023/08/07 11:38:52;;;;;;;4.17;1.20;;;21.60;1.00;;;;;;4949718;28;20548;-67
2023/08/07 11:41:19;;;;;;;5.10;1.50;;;21.60;1.00;;;;;;4949457;28;20466;-68
2023/08/07 11:43:47;;;;;;;4.30;1.30;;;21.70;1.00;;;;;;4949963;28;20489;-68
2023/08/07 11:46:15;;;;;;;4.00;1.20;;;21.90;1.00;;;;;;4951036;28;20459;-67
2023/08/07 11:48:43;;;;;;;4.17;1.10;;;22.00;1.00;;;;;;4948928;28;20880;-67
2023/08/07 11:51:10;;;;;;;3.40;1.17;;;22.10;1.00;;;;;;4945299;29;20820;-67
2023/08/07 11:53:40;;;;;;;4.73;1.60;;;22.10;1.00;;;;;;4949587;28;20462;-67
2023/08/07 11:56:09;;;;;;;5.13;1.40;;;22.20;1.00;;;;;;4950851;28;20466;-68
2023/08/07 11:58:37;;;;;;;4.80;1.00;;;22.10;1.00;;;;;;4949951;28;20478;-67
2023/08/07 12:01:09;;;;;;;3.80;1.30;;;22.00;1.00;;;;;;4949080;28;20482;-67
2023/08/07 12:03:38;;;;;;;3.40;1.00;;;21.90;1.00;;;;;;4946899;28;21057;-67
2023/08/07 12:06:06;;;;;;;3.47;1.10;;;21.60;1.00;;;;;;4947427;28;20857;-68
2023/08/07 12:08:34;;;;;;;4.27;1.20;;;21.40;1.00;;;;;;4947668;28;20474;-67
2023/08/07 12:11:04;;;;;;;3.70;1.50;;;21.30;1.00;;;;;;4950865;28;20463;-67
2023/08/07 12:13:31;;;;;;;3.63;1.20;;;21.60;1.00;;;;;;4950129;28;20462;-67
2023/08/07 12:15:59;;;;;;;4.20;1.20;;;21.90;1.00;;;;;;4945902;29;20522;-67
2023/08/07 12:18:28;;;;;;;4.10;1.20;;;22.10;1.00;;;;;;4949362;28;20478;-67
2023/08/07 12:20:58;;;;;;;4.03;1.03;;;22.20;1.00;;;;;;4950660;28;20465;-67
2023/08/07 12:23:25;;;;;;;4.40;1.13;;;22.20;1.00;;;;;;4947926;28;20478;-67
2023/08/07 12:25:52;;;;;;;3.33;1.10;;;22.20;1.00;;;;;;4948881;28;20470;-67
2023/08/07 12:28:21;;;;;;;4.70;1.37;;;22.10;1.00;;;;;;4965348;23;20543;-65
2023/08/07 12:30:48;;;;;;;5.27;1.20;;;22.10;1.00;;;;;;4971209;28;20461;-65
2023/08/07 12:33:15;;;;;;;3.43;0.90;;;22.10;1.00;;;;;;4994261;28;20453;-65
2023/08/07 12:35:43;;;;;;;3.17;1.03;;;22.10;1.00;;;;;;5001275;28;20955;-65
2023/08/07 12:38:10;;;;;;;4.90;1.30;;;22.20;1.00;;;;;;4987986;28;20484;-65
2023/08/07 12:40:37;;;;;;;4.90;1.53;;;22.10;1.00;;;;;;4985754;28;20913;-65
2023/08/07 12:43:04;;;;;;;4.53;1.10;;;21.70;1.00;;;;;;4997813;28;20484;-65
2023/08/07 12:45:33;;;;;;;3.70;1.20;;;21.30;1.00;;;;;;4993886;28;20874;-65
2023/08/07 12:48:00;;;;;;;3.50;1.00;;;21.00;1.00;;;;;;4997416;28;20502;-65
2023/08/07 12:50:27;;;;;;;3.20;0.90;;;20.60;1.00;;;;;;4994235;28;20965;-65
2023/08/07 12:52:53;;;;;;;3.47;1.00;;;20.30;1.00;;;;;;4999681;28;20452;-65
2023/08/07 12:55:20;;;;;;;5.60;2.07;;;20.10;1.00;;;;;;4996960;28;20452;-64